Flight Track Log - Related Links

Times and Time Zones

All times are in EDT time to prevent confusion due to time zone crossing. See the SWA542 flight status page for this flight to view local times or setup timezone preferences in your user account.

Time Position Orientation Groundspeed Altitude Reporting Facility
EDT Latitude Longitude Course Direction KTS km/h feet Rate Location/Type
Wed 11:18:36 PM 41.8000 -87.7333 90° East 132 245 2.200  Level Chicago TRACON
Wed 11:19:36 PM 41.8000 -87.6667 90° East 200 370 3.700 1.526 Climbing Chicago TRACON
Wed 11:20:30 PM 41.7989 -87.5894 91° East 201 372 5.100 724 Climbing Chicago Center
Wed 11:21:32 PM 41.8022 -87.4936 87° East 234 433 5.100 98 Level Chicago Center
Wed 11:22:33 PM 41.8042 -87.3978 88° East 251 465 5.300 1.854 Climbing Chicago Center
Wed 11:23:35 PM 41.8097 -87.2986 86° East 265 491 8.900 3.317 Climbing Chicago Center
Wed 11:24:36 PM 41.8183 -87.1858 84° East 300 555 12.100 2.976 Climbing Chicago Center
Wed 11:25:38 PM 41.8108 -87.0617 95° East 328 607 15.000 1.951 Climbing Chicago Center
Wed 11:26:39 PM 41.8031 -86.9303 94° East 348 644 16.100 2.213 Climbing Chicago Center
Wed 11:27:40 PM 41.7947 -86.7864 94° East 384 711 19.500 3.268 Climbing Chicago Center
Wed 11:28:42 PM 41.7856 -86.6272 94° East 396 734 22.800 2.537 Climbing Chicago Center
Wed 11:29:43 PM 41.7764 -86.4714 94° East 418 774 24.700 2.195 Climbing Chicago Center
Wed 11:30:45 PM 41.7678 -86.3089 94° East 436 808 27.300 2.098 Climbing Chicago Center
Wed 11:31:46 PM 41.7642 -86.1203 91° East 444 822 29.000 836 Climbing Chicago Center
Wed 11:32:47 PM 41.7583 -85.9322 92° East 472 874 29.000  Level Chicago Center
Wed 11:33:49 PM 41.7542 -85.7592 92° East 466 863 29.000  Level Chicago Center
Wed 11:34:50 PM 41.7519 -85.5847 91° East 464 859 29.000  Level Chicago Center
Wed 11:35:51 PM 41.7486 -85.4072 91° East 464 859 29.000  Level Chicago Center
Wed 11:36:53 PM 41.7461 -85.2314 91° East 463 858 29.000  Level Chicago Center
Wed 11:37:33 PM 41.7431 -85.1172 92° East 461 855 29.000  Level Cleveland Center
Wed 11:38:33 PM 41.7097 -84.9589 106° East 456 845 29.000  Level Cleveland Center
Wed 11:39:33 PM 41.6717 -84.8006 108° East 446 826 29.000  Level Cleveland Center
Wed 11:40:33 PM 41.6250 -84.6503 113° Southeast 441 816 29.000  Level Cleveland Center
Wed 11:41:33 PM 41.5653 -84.5133 120° Southeast 431 798 29.000  Level Cleveland Center
Wed 11:42:33 PM 41.5117 -84.3658 116° Southeast 436 808 29.000  Level Cleveland Center
Wed 11:43:33 PM 41.4581 -84.2242 117° Southeast 436 808 29.000  Level Cleveland Center
Wed 11:44:33 PM 41.3828 -84.0981 128° Southeast 436 808 29.000  Level Cleveland Center
Wed 11:45:33 PM 41.3047 -83.9861 133° Southeast 426 789 29.000 -200 Level Cleveland Center
Wed 11:46:33 PM 41.2139 -83.8872 141° Southeast 420 777 28.600 -1.200 Descending Cleveland Center
Wed 11:47:33 PM 41.1228 -83.7889 141° Southeast 426 789 26.600 -1.950 Descending Cleveland Center
Wed 11:48:33 PM 41.0503 -83.7000 137° Southeast 410 760 24.700 -2.100 Descending Cleveland Center
Wed 11:49:33 PM 40.9653 -83.6053 140° Southeast 404 748 22.400 -2.100 Descending Cleveland Center
Wed 11:50:33 PM 40.8775 -83.5244 145° Southeast 388 719 20.500 -1.800 Descending Cleveland Center
Wed 11:51:33 PM 40.8094 -83.4225 131° Southeast 374 692 18.800 -1.596 Descending Cleveland Center
Wed 11:53:56 PM 40.6422 -83.2072 136° Southeast 347 642 15.100 -1.588 Descending Indianapolis Center
Wed 11:54:57 PM 40.5669 -83.1108 136° Southeast 334 618 13.400 -1.625 Descending Indianapolis Center
Wed 11:55:32 PM 40.5200 -83.0875 159° South 310 575 12.500 -1.377 Descending Indianapolis Center
Wed 11:55:58 PM 40.4944 -83.0847 175° South 313 579 12.000 -1.279 Descending Indianapolis Center
Wed 11:56:33 PM 40.4403 -83.0919 186° South 274 507 11.200 -1.082 Descending Indianapolis Center
Wed 11:56:59 PM 40.4172 -83.0931 182° South 279 517 10.900 -667 Descending Indianapolis Center
Wed 11:57:27 PM 40.3706 -83.1000 186° South 263 488 10.600 -1.279 Descending Indianapolis Center
Wed 11:58:00 PM 40.3306 -83.0956 175° South 269 499 9.600 -1.475 Descending Indianapolis Center
Wed 11:58:28 PM 40.3008 -83.0783 156° South 267 494 9.100 -1.452 Descending Indianapolis Center
Wed 11:59:02 PM 40.2619 -83.0569 157° South 268 496 8.100 -1.475 Descending Indianapolis Center
Wed 11:59:29 PM 40.2344 -83.0378 152° Southeast 267 494 7.600 -1.377 Descending Indianapolis Center
Thu 12:00:03 AM 40.2083 -82.9875 124° Southeast 279 517 6.700 -1.400 Descending Indianapolis Center
Thu 12:00:29 AM 40.1878 -82.9558 130° Southeast 280 518 6.200 -1.377 Descending Indianapolis Center
Thu 12:01:04 AM 40.1608 -82.9081 126° Southeast 277 513 5.300 -984 Descending Indianapolis Center
Thu 12:01:30 AM 40.1428 -82.8797 130° Southeast 269 499 5.200 -590 Descending Indianapolis Center
Thu 12:02:05 AM 40.1136 -82.8372 132° Southeast 265 491 4.700 -655 Descending Indianapolis Center
Thu 12:02:25 AM 40.1028 -82.8208 131° Southeast 232 430 4.600 -787 Descending Indianapolis Center
Thu 12:03:06 AM 40.0744 -82.7767 130° Southeast 234 433 3.900 -800 Descending Indianapolis Center
Thu 12:03:25 AM 40.0603 -82.7642 146° Southeast 207 383 3.800 -885 Descending Indianapolis Center
Thu 12:04:07 AM 40.0250 -82.7464 159° South 212 393 3.000 -787 Descending Indianapolis Center
Thu 12:04:26 AM 40.0108 -82.7533 201° Southwest 183 340 3.000 -787 Level Indianapolis Center
Thu 12:05:08 AM 39.9922 -82.7856 233° Southwest 179 332 2.200 -1.100 Descending Indianapolis Center
Thu 12:05:26 AM 39.9908 -82.8056 265° West 140 259 1.900 -787 Descending Indianapolis Center
Thu 12:06:09 AM 39.9889 -82.8375 265° West 153 283 1.400 -787 Descending Indianapolis Center
Thu 12:06:27 AM 39.9914 -82.8572 279° West 140 259 1.100 -295 Descending Indianapolis Center
Thu 12:07:10 AM 39.9931 -82.8825 275° West 149 275 1.100  Level Indianapolis Center

Login

Don't have an account? Register now (free) for customized features, flight alerts, and more!